createdAt,value
2018-06-24T00:01:22.967Z,79.08
2018-06-24T00:03:50.183Z,78.60
2018-06-24T00:06:17.230Z,78.52
2018-06-24T00:08:44.420Z,78.53
2018-06-24T00:11:11.650Z,78.28
2018-06-24T00:13:38.854Z,78.22
2018-06-24T00:16:05.847Z,78.28
2018-06-24T00:18:32.879Z,77.97
2018-06-24T00:20:59.827Z,77.89
2018-06-24T00:23:26.982Z,77.98
2018-06-24T00:25:54.123Z,77.73
2018-06-24T00:28:21.088Z,77.73
2018-06-24T00:30:48.803Z,77.92
2018-06-24T00:33:15.738Z,77.82
2018-06-24T00:35:42.682Z,77.57
2018-06-24T00:38:09.615Z,77.35
2018-06-24T00:40:36.819Z,77.76
2018-06-24T00:43:03.815Z,78.15
2018-06-24T00:45:30.874Z,77.65
2018-06-24T00:47:57.870Z,77.65
2018-06-24T00:50:24.786Z,77.22
2018-06-24T00:52:51.727Z,77.92
2018-06-24T00:55:18.762Z,77.64
2018-06-24T00:57:45.754Z,77.64
2018-06-24T01:00:14.491Z,77.29
2018-06-24T01:02:41.643Z,77.30
2018-06-24T01:05:09.351Z,77.32
2018-06-24T01:07:36.279Z,77.69
2018-06-24T01:10:03.255Z,77.52
2018-06-24T01:12:30.355Z,77.71
2018-06-24T01:14:57.395Z,77.90
2018-06-24T01:17:24.319Z,77.71
2018-06-24T01:19:53.159Z,77.72
2018-06-24T01:22:20.163Z,77.98
2018-06-24T01:24:47.130Z,78.35
2018-06-24T01:27:14.048Z,78.09
2018-06-24T01:29:41.354Z,77.98
2018-06-24T01:32:08.306Z,78.46
2018-06-24T01:34:35.591Z,78.30
2018-06-24T01:37:02.511Z,78.40
2018-06-24T01:39:29.463Z,78.27
2018-06-24T01:41:56.451Z,78.78
2018-06-24T01:44:23.418Z,78.93
2018-06-24T01:46:50.347Z,79.10
2018-06-24T01:49:17.286Z,78.93
2018-06-24T01:51:44.223Z,79.10
2018-06-24T01:54:11.182Z,79.42
2018-06-24T01:56:38.135Z,79.60
2018-06-24T01:59:05.227Z,79.82
2018-06-24T02:01:32.193Z,80.17
2018-06-24T02:03:59.095Z,80.46
2018-06-24T02:06:26.023Z,80.59
2018-06-24T02:08:52.962Z,80.65
2018-06-24T02:11:19.942Z,81.08
2018-06-24T02:13:46.851Z,81.62
2018-06-24T02:16:13.819Z,81.68
2018-06-24T02:18:40.751Z,82.23
2018-06-24T02:21:07.830Z,82.69
2018-06-24T02:23:34.855Z,83.13
2018-06-24T02:26:01.999Z,83.45
2018-06-24T02:28:28.943Z,83.79
2018-06-24T02:30:55.876Z,83.78
2018-06-24T02:33:22.904Z,84.29
2018-06-24T02:35:50.008Z,84.35
2018-06-24T02:38:17.078Z,84.40
2018-06-24T02:40:44.024Z,84.37
2018-06-24T02:43:10.977Z,84.81
2018-06-24T02:45:37.915Z,84.61
2018-06-24T02:48:04.903Z,84.98
2018-06-24T02:50:31.811Z,85.12
2018-06-24T02:52:58.890Z,85.38
2018-06-24T02:55:25.823Z,85.27
2018-06-24T02:57:52.751Z,85.55
2018-06-24T03:00:19.723Z,86.07
2018-06-24T03:02:46.823Z,86.23
2018-06-24T03:05:13.743Z,86.18
2018-06-24T03:07:41.423Z,86.13
2018-06-24T03:10:08.362Z,86.23
2018-06-24T03:12:35.311Z,86.23
2018-06-24T03:15:02.275Z,86.17
2018-06-24T03:17:29.215Z,86.23
2018-06-24T03:19:56.155Z,86.51
2018-06-24T03:22:23.119Z,86.79
2018-06-24T03:24:50.047Z,86.96
2018-06-24T03:27:16.984Z,86.32
2018-06-24T03:29:43.951Z,86.58
2018-06-24T03:32:11.461Z,86.54
2018-06-24T03:34:38.436Z,86.46
2018-06-24T03:37:05.573Z,86.01
2018-06-24T03:39:32.567Z,86.59
2018-06-24T03:41:59.514Z,86.37
2018-06-24T03:44:26.460Z,86.56
2018-06-24T03:46:53.440Z,86.86
2018-06-24T03:49:20.363Z,86.80
2018-06-24T03:51:47.295Z,86.74
2018-06-24T03:54:14.315Z,86.82
2018-06-24T03:56:41.257Z,86.63
2018-06-24T03:59:08.260Z,86.72
2018-06-24T04:01:35.203Z,86.45
2018-06-24T04:04:02.131Z,86.88
2018-06-24T04:06:29.298Z,86.82
2018-06-24T04:08:56.227Z,86.47
2018-06-24T04:11:23.175Z,86.87
2018-06-24T04:13:50.980Z,86.71
2018-06-24T04:16:19.435Z,86.21
2018-06-24T04:18:46.404Z,86.48
2018-06-24T04:21:14.357Z,86.61
2018-06-24T04:23:42.666Z,86.26
2018-06-24T04:26:10.445Z,86.16
2018-06-24T04:28:37.887Z,86.01
2018-06-24T04:31:04.862Z,85.88
2018-06-24T04:33:32.357Z,86.37
2018-06-24T04:35:59.427Z,86.84
2018-06-24T04:38:26.377Z,87.12
2018-06-24T04:40:53.431Z,87.19
2018-06-24T04:43:20.511Z,87.63
2018-06-24T04:45:47.543Z,87.78
2018-06-24T04:48:15.052Z,85.52
2018-06-24T04:50:42.006Z,85.72
2018-06-24T04:53:09.039Z,86.04
2018-06-24T04:55:35.975Z,85.91
2018-06-24T04:58:02.884Z,85.55
2018-06-24T05:00:29.867Z,85.44
2018-06-24T05:02:56.807Z,85.45
2018-06-24T05:05:23.839Z,85.45
2018-06-24T05:07:50.943Z,85.29
2018-06-24T05:10:17.911Z,85.33
2018-06-24T05:12:44.867Z,85.08
2018-06-24T05:15:11.941Z,84.72
2018-06-24T05:17:38.881Z,84.77
2018-06-24T05:20:05.911Z,84.54
2018-06-24T05:22:32.977Z,84.29
2018-06-24T05:24:59.923Z,84.61
2018-06-24T05:27:27.263Z,84.00
2018-06-24T05:29:54.159Z,84.24
2018-06-24T05:32:21.230Z,84.54
2018-06-24T05:34:48.147Z,84.09
2018-06-24T05:37:15.139Z,84.23
2018-06-24T05:39:42.063Z,84.15
2018-06-24T05:42:09.390Z,83.35
2018-06-24T05:44:36.395Z,83.45
2018-06-24T05:47:03.347Z,83.37
2018-06-24T05:49:30.311Z,82.59
2018-06-24T05:51:57.220Z,82.80
2018-06-24T05:54:24.664Z,82.64
2018-06-24T05:56:51.670Z,82.56
2018-06-24T05:59:18.798Z,82.43
2018-06-24T06:01:45.837Z,82.58
2018-06-24T06:04:12.787Z,82.33
2018-06-24T06:06:39.796Z,82.47
2018-06-24T06:09:08.343Z,82.40
2018-06-24T06:11:35.279Z,82.62
2018-06-24T06:14:02.264Z,82.34
2018-06-24T06:16:29.188Z,81.85
2018-06-24T06:18:56.566Z,81.89
2018-06-24T06:21:23.504Z,82.49
2018-06-24T06:23:50.459Z,82.35
2018-06-24T06:26:17.367Z,82.37
2018-06-24T06:28:44.298Z,82.14
2018-06-24T06:31:11.395Z,82.02
2018-06-24T06:33:38.415Z,81.97
2018-06-24T06:36:06.207Z,81.99
2018-06-24T06:38:33.290Z,81.82
2018-06-24T06:41:00.252Z,82.02
2018-06-24T06:43:27.248Z,81.82
2018-06-24T06:45:54.163Z,81.10
2018-06-24T06:48:21.099Z,80.58
2018-06-24T06:50:48.032Z,80.49
2018-06-24T06:53:14.955Z,80.53
2018-06-24T06:55:41.879Z,80.07
2018-06-24T06:58:08.912Z,78.91
2018-06-24T07:00:35.838Z,79.62
2018-06-24T07:03:02.855Z,79.83
2018-06-24T07:05:29.787Z,78.98
2018-06-24T07:07:56.810Z,78.48
2018-06-24T07:10:23.896Z,78.14
2018-06-24T07:12:50.830Z,78.22
2018-06-24T07:15:17.802Z,78.30
2018-06-24T07:17:44.710Z,79.15
2018-06-24T07:20:11.679Z,79.21
2018-06-24T07:22:38.669Z,79.22
2018-06-24T07:25:05.751Z,79.40
2018-06-24T07:27:32.675Z,79.70
2018-06-24T07:29:59.625Z,79.79
2018-06-24T07:32:26.539Z,79.98
2018-06-24T07:34:53.532Z,80.23
2018-06-24T07:37:20.454Z,80.16
2018-06-24T07:39:47.535Z,80.64
2018-06-24T07:42:14.467Z,80.78
2018-06-24T07:44:41.547Z,80.03
2018-06-24T07:47:08.683Z,80.23
2018-06-24T07:49:35.677Z,81.07
2018-06-24T07:52:02.608Z,81.06
2018-06-24T07:54:29.547Z,80.76
2018-06-24T07:56:56.491Z,79.86
2018-06-24T07:59:23.954Z,79.68
2018-06-24T08:01:50.871Z,78.96
2018-06-24T08:04:17.783Z,78.12
2018-06-24T08:06:44.782Z,77.71
2018-06-24T08:09:12.169Z,77.67
2018-06-24T08:11:40.147Z,77.33
2018-06-24T08:14:07.109Z,77.17
2018-06-24T08:16:34.083Z,77.04
2018-06-24T08:19:01.563Z,77.35
2018-06-24T08:21:28.502Z,77.72
2018-06-24T08:23:55.427Z,78.35
2018-06-24T08:26:22.376Z,79.54
2018-06-24T08:28:49.310Z,79.26
2018-06-24T08:31:16.235Z,78.73
2018-06-24T08:33:43.138Z,79.17
2018-06-24T08:36:10.076Z,78.49
2018-06-24T08:38:37.079Z,78.33
2018-06-24T08:41:04.150Z,77.95
2018-06-24T08:43:31.079Z,77.28
2018-06-24T08:45:58.091Z,76.98
2018-06-24T08:48:25.003Z,76.05
2018-06-24T08:50:52.015Z,75.47
2018-06-24T08:53:18.971Z,75.50
2018-06-24T08:55:45.910Z,75.90
2018-06-24T08:58:12.839Z,75.80
2018-06-24T09:00:39.774Z,75.56
2018-06-24T09:03:06.767Z,76.12
2018-06-24T09:05:33.699Z,77.39
2018-06-24T09:08:00.720Z,77.44
2018-06-24T09:10:27.705Z,77.20
2018-06-24T09:12:54.629Z,76.83
2018-06-24T09:15:21.580Z,75.18
2018-06-24T09:17:48.723Z,73.77
2018-06-24T09:20:15.779Z,72.57
2018-06-24T09:22:42.727Z,72.32
2018-06-24T09:25:09.659Z,72.62
2018-06-24T09:27:36.611Z,72.87
2018-06-24T09:30:03.990Z,72.33
2018-06-24T09:32:30.959Z,73.59
2018-06-24T09:34:57.899Z,74.51
2018-06-24T09:37:24.931Z,75.25
2018-06-24T09:39:51.842Z,76.11
2018-06-24T09:42:18.811Z,77.00
2018-06-24T09:44:45.801Z,77.64
2018-06-24T09:47:13.780Z,76.49
2018-06-24T09:49:40.791Z,74.54
2018-06-24T09:52:09.621Z,74.50
2018-06-24T09:54:36.598Z,72.92
2018-06-24T09:57:03.639Z,72.22
2018-06-24T09:59:30.767Z,72.75
2018-06-24T10:01:57.737Z,73.73
2018-06-24T10:04:24.815Z,74.48
2018-06-24T10:06:52.039Z,75.67
2018-06-24T10:09:18.941Z,76.17
2018-06-24T10:11:45.915Z,76.45
2018-06-24T10:14:12.823Z,76.54
2018-06-24T10:16:39.746Z,77.28
2018-06-24T10:19:06.662Z,75.19
2018-06-24T10:21:33.654Z,75.65
2018-06-24T10:24:00.629Z,75.14
2018-06-24T10:26:27.579Z,75.09
2018-06-24T10:28:55.110Z,74.05
2018-06-24T10:31:21.862Z,73.18
2018-06-24T10:33:48.777Z,72.77
2018-06-24T10:36:15.714Z,72.89
2018-06-24T10:38:42.987Z,72.93
2018-06-24T10:41:10.251Z,73.67
2018-06-24T10:43:37.199Z,73.99
2018-06-24T10:46:04.160Z,74.60
2018-06-24T10:48:31.103Z,75.07
2018-06-24T10:50:58.026Z,75.75
2018-06-24T10:53:25.008Z,75.89
2018-06-24T10:55:51.931Z,75.72
2018-06-24T10:58:18.887Z,76.15
2018-06-24T11:00:45.848Z,75.18
2018-06-24T11:03:12.808Z,74.66
2018-06-24T11:05:39.739Z,73.35
2018-06-24T11:08:06.671Z,71.83
2018-06-24T11:10:33.578Z,70.28
2018-06-24T11:13:00.519Z,70.35
2018-06-24T11:15:27.475Z,70.12
2018-06-24T11:17:54.503Z,68.66
2018-06-24T11:20:21.437Z,68.55
2018-06-24T11:22:48.363Z,69.71
2018-06-24T11:25:15.351Z,67.97
2018-06-24T11:27:42.367Z,68.31
2018-06-24T11:30:09.294Z,68.23
2018-06-24T11:32:36.203Z,68.76
2018-06-24T11:35:03.191Z,68.51
2018-06-24T11:37:30.103Z,68.35
2018-06-24T11:39:57.263Z,66.39
2018-06-24T11:42:24.243Z,66.35
2018-06-24T11:44:51.166Z,66.27
2018-06-24T11:47:18.074Z,66.76
2018-06-24T11:49:44.999Z,67.38
2018-06-24T11:52:11.951Z,68.52
2018-06-24T11:54:38.864Z,68.86
2018-06-24T11:57:06.225Z,69.11
2018-06-24T11:59:33.139Z,68.83
2018-06-24T12:02:00.379Z,67.42
2018-06-24T12:04:27.256Z,67.09
2018-06-24T12:06:54.244Z,66.33
2018-06-24T12:09:21.166Z,66.61
2018-06-24T12:11:48.575Z,67.33
2018-06-24T12:14:15.495Z,66.94
2018-06-24T12:16:42.579Z,68.72
2018-06-24T12:19:09.511Z,68.38
2018-06-24T12:21:36.575Z,68.04
2018-06-24T12:24:03.795Z,68.21
2018-06-24T12:26:30.735Z,66.86
2018-06-24T12:28:58.127Z,66.00
2018-06-24T12:31:25.147Z,65.17
2018-06-24T12:33:52.053Z,64.53
2018-06-24T12:36:19.486Z,64.71
2018-06-24T12:38:46.427Z,66.16
2018-06-24T12:41:13.339Z,66.66
2018-06-24T12:43:40.599Z,67.07
2018-06-24T12:46:07.845Z,67.52
2018-06-24T12:48:34.907Z,68.31
2018-06-24T12:51:01.823Z,68.82
2018-06-24T12:53:28.752Z,69.42
2018-06-24T12:55:55.655Z,69.74
2018-06-24T12:58:22.681Z,69.75
2018-06-24T13:00:50.047Z,69.84
2018-06-24T13:03:16.667Z,70.96
2018-06-24T13:05:43.578Z,70.48
2018-06-24T13:08:10.497Z,70.38
2018-06-24T13:10:37.431Z,70.13
2018-06-24T13:13:04.355Z,69.64
2018-06-24T13:15:31.325Z,70.04
2018-06-24T13:17:58.291Z,69.90
2018-06-24T13:20:25.223Z,70.07
2018-06-24T13:22:52.203Z,69.30
2018-06-24T13:25:19.187Z,69.75
2018-06-24T13:27:46.353Z,69.86
2018-06-24T13:30:13.283Z,70.15
2018-06-24T13:32:40.303Z,70.28
2018-06-24T13:35:07.315Z,70.53
2018-06-24T13:37:34.236Z,70.81
2018-06-24T13:40:01.175Z,71.00
2018-06-24T13:42:28.177Z,71.05
2018-06-24T13:44:55.183Z,71.35
2018-06-24T13:47:22.123Z,72.02
2018-06-24T13:49:49.056Z,72.42
2018-06-24T13:52:16.051Z,72.94
2018-06-24T13:54:43.062Z,73.37
2018-06-24T13:57:09.973Z,73.25
2018-06-24T13:59:36.945Z,73.62
2018-06-24T14:02:04.050Z,72.13
2018-06-24T14:04:31.031Z,71.95
2018-06-24T14:06:58.067Z,70.30
2018-06-24T14:09:25.023Z,70.92
2018-06-24T14:11:51.930Z,68.79
2018-06-24T14:14:18.858Z,68.55
2018-06-24T14:16:45.779Z,66.18
2018-06-24T14:19:12.731Z,66.51
2018-06-24T14:21:39.708Z,66.67
2018-06-24T14:24:06.783Z,67.11
2018-06-24T14:26:34.490Z,68.52
2018-06-24T14:29:01.485Z,69.30
2018-06-24T14:31:28.463Z,69.46
2018-06-24T14:33:55.442Z,70.19
2018-06-24T14:36:22.645Z,70.70
2018-06-24T14:38:49.599Z,71.06
2018-06-24T14:41:16.544Z,71.07
2018-06-24T14:43:43.491Z,71.45
2018-06-24T14:46:10.556Z,71.60
2018-06-24T14:48:37.743Z,71.07
2018-06-24T14:51:04.819Z,71.46
2018-06-24T14:53:31.787Z,71.31
2018-06-24T14:55:58.861Z,71.80
2018-06-24T14:58:25.933Z,72.43
2018-06-24T15:00:52.868Z,72.91
2018-06-24T15:03:19.854Z,73.82
2018-06-24T15:05:46.895Z,73.77
2018-06-24T15:08:13.791Z,73.50
2018-06-24T15:10:40.755Z,73.11
2018-06-24T15:13:07.727Z,73.40
2018-06-24T15:15:34.802Z,72.78
2018-06-24T15:18:01.756Z,72.28
2018-06-24T15:20:28.864Z,71.88
2018-06-24T15:22:55.785Z,72.11
2018-06-24T15:25:22.943Z,71.80
2018-06-24T15:27:50.120Z,72.04
2018-06-24T15:30:17.039Z,71.83
2018-06-24T15:32:44.455Z,71.48
2018-06-24T15:35:12.023Z,71.35
2018-06-24T15:37:38.972Z,71.06
2018-06-24T15:40:06.011Z,71.29
2018-06-24T15:42:32.934Z,71.66
2018-06-24T15:44:59.840Z,71.60
2018-06-24T15:47:26.925Z,72.04
2018-06-24T15:49:53.863Z,72.42
2018-06-24T15:52:21.023Z,71.87
2018-06-24T15:54:47.940Z,71.77
2018-06-24T15:57:14.917Z,71.52
2018-06-24T15:59:41.857Z,71.95
2018-06-24T16:02:09.068Z,71.09
2018-06-24T16:04:35.979Z,71.83
2018-06-24T16:07:03.175Z,70.82
2018-06-24T16:09:30.100Z,71.39
2018-06-24T16:11:57.087Z,71.33
2018-06-24T16:14:24.171Z,72.06
2018-06-24T16:16:51.731Z,71.95
2018-06-24T16:19:18.642Z,72.16
2018-06-24T16:21:45.604Z,72.39
2018-06-24T16:24:12.532Z,72.17
2018-06-24T16:26:39.449Z,72.57
2018-06-24T16:29:06.379Z,72.54
2018-06-24T16:31:33.327Z,73.23
2018-06-24T16:34:00.275Z,73.40
2018-06-24T16:36:27.327Z,72.98
2018-06-24T16:38:54.263Z,72.89
2018-06-24T16:41:21.267Z,74.02
2018-06-24T16:43:48.195Z,73.96
2018-06-24T16:46:15.202Z,73.90
2018-06-24T16:48:42.247Z,74.05
2018-06-24T16:51:09.170Z,74.39
2018-06-24T16:53:36.479Z,74.36
2018-06-24T16:56:03.555Z,74.81
2018-06-24T16:58:30.487Z,74.95
2018-06-24T17:00:57.479Z,74.83
2018-06-24T17:03:24.502Z,74.96
2018-06-24T17:05:51.515Z,74.96
2018-06-24T17:08:18.447Z,74.55
2018-06-24T17:10:45.828Z,74.47
2018-06-24T17:13:12.736Z,74.42
2018-06-24T17:15:39.672Z,74.33
2018-06-24T17:18:06.617Z,73.88
2018-06-24T17:20:33.567Z,73.96
2018-06-24T17:23:00.545Z,73.88
2018-06-24T17:25:27.495Z,73.47
2018-06-24T17:27:54.394Z,73.81
2018-06-24T17:30:21.343Z,73.26
2018-06-24T17:32:48.258Z,73.35
2018-06-24T17:35:15.279Z,73.55
2018-06-24T17:37:42.187Z,73.48
2018-06-24T17:40:09.267Z,73.00
2018-06-24T17:42:36.170Z,73.70
2018-06-24T17:45:03.133Z,73.66
2018-06-24T17:47:30.411Z,73.78
2018-06-24T17:49:57.470Z,73.88
2018-06-24T17:52:24.395Z,74.06
2018-06-24T17:54:51.418Z,74.50
2018-06-24T17:57:18.367Z,74.39
2018-06-24T17:59:45.419Z,74.61
2018-06-24T18:02:12.335Z,74.52
2018-06-24T18:04:39.275Z,74.63
2018-06-24T18:07:06.203Z,75.11
2018-06-24T18:09:33.131Z,74.83
2018-06-24T18:12:00.127Z,74.67
2018-06-24T18:14:27.043Z,74.43
2018-06-24T18:16:53.977Z,74.56
2018-06-24T18:19:20.883Z,75.34
2018-06-24T18:21:48.015Z,75.02
2018-06-24T18:24:14.935Z,75.22
2018-06-24T18:26:41.989Z,74.93
2018-06-24T18:29:09.203Z,74.73
2018-06-24T18:31:36.183Z,74.23
2018-06-24T18:34:03.142Z,74.53
2018-06-24T18:36:30.075Z,74.49
2018-06-24T18:38:56.999Z,74.26
2018-06-24T18:41:23.935Z,74.51
2018-06-24T18:43:50.854Z,74.43
2018-06-24T18:46:17.799Z,74.69
2018-06-24T18:48:44.719Z,74.56
2018-06-24T18:51:11.851Z,74.66
2018-06-24T18:53:38.770Z,74.75
2018-06-24T18:56:06.831Z,74.39
2018-06-24T18:58:33.756Z,74.48
2018-06-24T19:01:00.927Z,73.96
2018-06-24T19:03:27.895Z,74.53
2018-06-24T19:05:54.843Z,74.79
2018-06-24T19:08:21.768Z,74.27
2018-06-24T19:10:49.011Z,74.58
2018-06-24T19:13:15.965Z,74.76
2018-06-24T19:15:42.979Z,74.54
2018-06-24T19:18:09.915Z,75.07
2018-06-24T19:29:45.851Z,75.51
2018-06-24T19:32:12.776Z,75.94
2018-06-24T19:34:39.767Z,75.75
2018-06-24T19:37:06.694Z,75.78
2018-06-24T19:39:33.697Z,76.42
2018-06-24T19:42:00.615Z,76.12
2018-06-24T19:44:27.563Z,76.57
2018-06-24T19:46:54.506Z,76.43
2018-06-24T19:49:21.452Z,77.14
2018-06-24T19:51:49.071Z,76.65
2018-06-24T19:54:15.992Z,76.76
2018-06-24T19:56:42.980Z,77.40
2018-06-24T19:59:09.881Z,77.55
2018-06-24T20:01:37.034Z,77.36
2018-06-24T20:04:03.959Z,77.47
2018-06-24T20:06:31.010Z,77.78
2018-06-24T20:08:57.923Z,78.16
2018-06-24T20:11:24.863Z,77.85
2018-06-24T20:13:51.771Z,77.93
2018-06-24T20:16:18.712Z,78.41
2018-06-24T20:18:45.675Z,78.27
2018-06-24T20:21:12.623Z,78.59
2018-06-24T20:23:39.566Z,78.61
2018-06-24T20:26:06.567Z,78.50
2018-06-24T20:28:33.639Z,78.52
2018-06-24T20:31:00.563Z,78.89
2018-06-24T20:33:27.507Z,79.09
2018-06-24T20:35:54.444Z,78.89
2018-06-24T20:38:21.643Z,79.18
2018-06-24T20:40:48.587Z,79.13
2018-06-24T20:43:15.519Z,79.90
2018-06-24T20:45:42.439Z,79.80
2018-06-24T20:48:09.375Z,80.01
2018-06-24T20:50:37.023Z,80.58
2018-06-24T20:53:04.464Z,80.38
2018-06-24T20:55:31.395Z,80.71
2018-06-24T20:57:58.301Z,80.57
2018-06-24T21:00:25.223Z,81.31
2018-06-24T21:02:52.170Z,81.30
2018-06-24T21:05:19.111Z,81.64
2018-06-24T21:07:46.099Z,81.94
2018-06-24T21:10:13.044Z,81.94
2018-06-24T21:12:39.980Z,82.03
2018-06-24T21:15:06.927Z,82.38
2018-06-24T21:17:33.868Z,82.39
2018-06-24T21:20:00.898Z,82.17
2018-06-24T21:22:27.879Z,82.51
2018-06-24T21:24:54.820Z,82.39
2018-06-24T21:27:21.879Z,82.77
2018-06-24T21:29:48.923Z,82.87
2018-06-24T21:32:15.913Z,82.67
2018-06-24T21:34:42.854Z,82.77
2018-06-24T21:37:09.847Z,82.69
2018-06-24T21:39:36.855Z,82.96
2018-06-24T21:42:03.855Z,82.93
2018-06-24T21:44:30.759Z,83.14
2018-06-24T21:46:57.744Z,83.31
2018-06-24T21:49:24.730Z,83.75
2018-06-24T21:51:52.612Z,83.61
2018-06-24T21:54:19.542Z,83.72
2018-06-24T21:56:46.714Z,84.22
2018-06-24T21:59:13.911Z,84.08
2018-06-24T22:01:40.854Z,84.01
2018-06-24T22:04:08.455Z,84.20
2018-06-24T22:06:35.405Z,84.31
2018-06-24T22:09:02.595Z,84.28
2018-06-24T22:11:29.577Z,84.17
2018-06-24T22:13:56.532Z,84.12
2018-06-24T22:16:23.477Z,83.93
2018-06-24T22:18:50.398Z,84.17
2018-06-24T22:21:17.611Z,83.91
2018-06-24T22:23:44.576Z,84.09
2018-06-24T22:26:11.539Z,84.13
2018-06-24T22:28:38.787Z,83.67
2018-06-24T22:31:05.859Z,83.82
2018-06-24T22:33:32.836Z,83.60
2018-06-24T22:35:59.861Z,83.73
2018-06-24T22:38:26.795Z,83.43
2018-06-24T22:40:53.739Z,83.58
2018-06-24T22:43:21.651Z,83.50
2018-06-24T22:45:48.824Z,83.44
2018-06-24T22:48:15.811Z,83.85
2018-06-24T22:50:42.739Z,83.75
2018-06-24T22:53:09.684Z,83.46
2018-06-24T22:55:36.655Z,83.65
2018-06-24T22:58:03.903Z,83.86
2018-06-24T23:00:30.848Z,83.56
2018-06-24T23:03:02.972Z,83.41
2018-06-24T23:05:30.136Z,83.54
2018-06-24T23:07:57.046Z,83.19
2018-06-24T23:10:23.979Z,82.87
2018-06-24T23:12:50.980Z,82.50
2018-06-24T23:15:17.887Z,82.65
2018-06-24T23:17:45.449Z,82.79
2018-06-24T23:20:12.382Z,82.43
2018-06-24T23:22:39.335Z,82.50
2018-06-24T23:25:06.309Z,82.21
2018-06-24T23:27:33.235Z,82.49
2018-06-24T23:30:00.172Z,82.33
2018-06-24T23:32:27.314Z,82.38
2018-06-24T23:34:54.406Z,82.46
2018-06-24T23:37:21.355Z,82.29
2018-06-24T23:39:48.272Z,81.94
2018-06-24T23:42:15.208Z,82.54
2018-06-24T23:44:42.135Z,82.16
2018-06-24T23:47:09.223Z,82.47
2018-06-24T23:49:36.179Z,82.38
2018-06-24T23:52:03.188Z,82.25
2018-06-24T23:54:30.193Z,82.05
2018-06-24T23:56:57.148Z,82.28
2018-06-24T23:59:24.244Z,81.99
